sensor_id;sensor_type;location;lat;lon;timestamp;P1;durP1;ratioP1;P2;durP2;ratioP2
41556;SDS011;27720;51.992;5.890;2023-06-22T00:01:24;1.60;;;1.00;;
41556;SDS011;27720;51.992;5.890;2023-06-22T00:03:55;1.70;;;0.70;;
41556;SDS011;27720;51.992;5.890;2023-06-22T00:06:21;2.75;;;1.05;;
41556;SDS011;27720;51.992;5.890;2023-06-22T00:08:47;1.35;;;0.88;;
41556;SDS011;27720;51.992;5.890;2023-06-22T00:11:12;2.22;;;1.15;;
41556;SDS011;27720;51.992;5.890;2023-06-22T00:13:38;3.83;;;1.10;;
41556;SDS011;27720;51.992;5.890;2023-06-22T00:16:04;2.38;;;1.40;;
41556;SDS011;27720;51.992;5.890;2023-06-22T00:18:30;2.53;;;1.42;;
41556;SDS011;27720;51.992;5.890;2023-06-22T00:20:57;2.25;;;0.90;;
41556;SDS011;27720;51.992;5.890;2023-06-22T00:23:24;4.03;;;1.42;;
41556;SDS011;27720;51.992;5.890;2023-06-22T00:25:50;1.88;;;1.02;;
41556;SDS011;27720;51.992;5.890;2023-06-22T00:28:16;2.13;;;1.27;;
41556;SDS011;27720;51.992;5.890;2023-06-22T00:30:42;2.33;;;1.05;;
41556;SDS011;27720;51.992;5.890;2023-06-22T00:33:08;3.55;;;1.65;;
41556;SDS011;27720;51.992;5.890;2023-06-22T00:35:34;3.45;;;1.38;;
41556;SDS011;27720;51.992;5.890;2023-06-22T00:38:00;2.40;;;1.50;;
41556;SDS011;27720;51.992;5.890;2023-06-22T00:40:26;3.38;;;1.58;;
41556;SDS011;27720;51.992;5.890;2023-06-22T00:42:57;4.00;;;1.40;;
41556;SDS011;27720;51.992;5.890;2023-06-22T00:45:23;3.15;;;1.30;;
41556;SDS011;27720;51.992;5.890;2023-06-22T00:47:50;1.88;;;0.98;;
41556;SDS011;27720;51.992;5.890;2023-06-22T00:50:18;2.70;;;1.00;;
41556;SDS011;27720;51.992;5.890;2023-06-22T00:52:56;1.77;;;0.90;;
41556;SDS011;27720;51.992;5.890;2023-06-22T00:55:23;1.95;;;1.55;;
41556;SDS011;27720;51.992;5.890;2023-06-22T00:57:51;1.63;;;1.00;;
41556;SDS011;27720;51.992;5.890;2023-06-22T01:00:21;1.40;;;0.90;;
41556;SDS011;27720;51.992;5.890;2023-06-22T01:02:53;2.38;;;1.25;;
41556;SDS011;27720;51.992;5.890;2023-06-22T01:05:19;2.15;;;1.23;;
41556;SDS011;27720;51.992;5.890;2023-06-22T01:13:26;2.28;;;1.30;;
41556;SDS011;27720;51.992;5.890;2023-06-22T01:16:05;3.10;;;1.70;;
41556;SDS011;27720;51.992;5.890;2023-06-22T01:18:40;2.53;;;1.40;;
41556;SDS011;27720;51.992;5.890;2023-06-22T01:21:07;2.10;;;1.10;;
41556;SDS011;27720;51.992;5.890;2023-06-22T01:28:55;2.45;;;1.30;;
41556;SDS011;27720;51.992;5.890;2023-06-22T01:31:27;2.47;;;1.20;;
41556;SDS011;27720;51.992;5.890;2023-06-22T01:33:59;2.95;;;1.20;;
41556;SDS011;27720;51.992;5.890;2023-06-22T01:36:28;1.85;;;1.20;;
41556;SDS011;27720;51.992;5.890;2023-06-22T01:38:55;1.90;;;1.20;;
41556;SDS011;27720;51.992;5.890;2023-06-22T01:41:23;2.15;;;1.02;;
41556;SDS011;27720;51.992;5.890;2023-06-22T01:43:51;3.28;;;1.25;;
41556;SDS011;27720;51.992;5.890;2023-06-22T01:46:19;2.47;;;1.45;;
41556;SDS011;27720;51.992;5.890;2023-06-22T01:48:46;3.83;;;1.58;;
41556;SDS011;27720;51.992;5.890;2023-06-22T01:51:12;2.40;;;1.30;;
41556;SDS011;27720;51.992;5.890;2023-06-22T01:53:39;2.75;;;1.40;;
41556;SDS011;27720;51.992;5.890;2023-06-22T01:56:04;1.92;;;1.27;;
41556;SDS011;27720;51.992;5.890;2023-06-22T01:58:31;4.90;;;1.80;;
41556;SDS011;27720;51.992;5.890;2023-06-22T02:03:37;4.13;;;1.58;;
41556;SDS011;27720;51.992;5.890;2023-06-22T02:06:10;3.85;;;1.75;;
41556;SDS011;27720;51.992;5.890;2023-06-22T02:08:51;3.38;;;1.88;;
41556;SDS011;27720;51.992;5.890;2023-06-22T02:11:22;3.33;;;1.75;;
41556;SDS011;27720;51.992;5.890;2023-06-22T02:13:49;3.40;;;1.95;;
41556;SDS011;27720;51.992;5.890;2023-06-22T02:16:15;3.28;;;1.50;;
41556;SDS011;27720;51.992;5.890;2023-06-22T02:18:49;2.67;;;1.33;;
41556;SDS011;27720;51.992;5.890;2023-06-22T02:21:18;2.70;;;1.90;;
41556;SDS011;27720;51.992;5.890;2023-06-22T02:23:45;2.65;;;1.52;;
41556;SDS011;27720;51.992;5.890;2023-06-22T02:26:11;2.65;;;1.40;;
41556;SDS011;27720;51.992;5.890;2023-06-22T02:28:37;3.25;;;1.67;;
41556;SDS011;27720;51.992;5.890;2023-06-22T02:31:03;5.38;;;2.22;;
41556;SDS011;27720;51.992;5.890;2023-06-22T02:33:29;2.63;;;1.45;;
41556;SDS011;27720;51.992;5.890;2023-06-22T02:35:55;2.88;;;1.48;;
41556;SDS011;27720;51.992;5.890;2023-06-22T02:38:21;2.38;;;1.60;;
41556;SDS011;27720;51.992;5.890;2023-06-22T02:40:50;3.77;;;1.83;;
41556;SDS011;27720;51.992;5.890;2023-06-22T02:43:16;3.40;;;1.95;;
41556;SDS011;27720;51.992;5.890;2023-06-22T02:45:43;2.45;;;1.60;;
41556;SDS011;27720;51.992;5.890;2023-06-22T02:48:10;2.17;;;1.50;;
41556;SDS011;27720;51.992;5.890;2023-06-22T02:50:36;4.60;;;2.20;;
41556;SDS011;27720;51.992;5.890;2023-06-22T02:53:03;3.35;;;1.58;;
41556;SDS011;27720;51.992;5.890;2023-06-22T02:57:59;2.22;;;1.67;;
41556;SDS011;27720;51.992;5.890;2023-06-22T03:00:31;3.28;;;1.77;;
41556;SDS011;27720;51.992;5.890;2023-06-22T03:02:57;3.88;;;1.90;;
41556;SDS011;27720;51.992;5.890;2023-06-22T03:05:23;3.58;;;1.85;;
41556;SDS011;27720;51.992;5.890;2023-06-22T03:07:49;5.03;;;1.65;;
41556;SDS011;27720;51.992;5.890;2023-06-22T03:10:15;3.22;;;1.80;;
41556;SDS011;27720;51.992;5.890;2023-06-22T03:12:42;3.88;;;1.90;;
41556;SDS011;27720;51.992;5.890;2023-06-22T03:15:09;3.60;;;1.90;;
41556;SDS011;27720;51.992;5.890;2023-06-22T03:17:36;4.10;;;2.38;;
41556;SDS011;27720;51.992;5.890;2023-06-22T03:20:04;3.42;;;2.00;;
41556;SDS011;27720;51.992;5.890;2023-06-22T03:22:34;4.35;;;2.15;;
41556;SDS011;27720;51.992;5.890;2023-06-22T03:25:01;4.03;;;2.30;;
41556;SDS011;27720;51.992;5.890;2023-06-22T03:27:27;4.50;;;2.20;;
41556;SDS011;27720;51.992;5.890;2023-06-22T03:29:52;4.07;;;2.05;;
41556;SDS011;27720;51.992;5.890;2023-06-22T03:32:18;5.03;;;2.60;;
41556;SDS011;27720;51.992;5.890;2023-06-22T03:34:44;6.45;;;2.38;;
41556;SDS011;27720;51.992;5.890;2023-06-22T03:37:13;5.72;;;3.25;;
41556;SDS011;27720;51.992;5.890;2023-06-22T03:39:40;4.22;;;2.22;;
41556;SDS011;27720;51.992;5.890;2023-06-22T03:42:08;3.30;;;2.17;;
41556;SDS011;27720;51.992;5.890;2023-06-22T03:44:34;5.03;;;2.55;;
41556;SDS011;27720;51.992;5.890;2023-06-22T03:47:02;4.40;;;2.33;;
41556;SDS011;27720;51.992;5.890;2023-06-22T03:49:29;5.50;;;3.03;;
41556;SDS011;27720;51.992;5.890;2023-06-22T03:51:54;4.53;;;2.22;;
41556;SDS011;27720;51.992;5.890;2023-06-22T03:54:20;5.88;;;2.67;;
41556;SDS011;27720;51.992;5.890;2023-06-22T03:56:46;6.13;;;3.20;;
41556;SDS011;27720;51.992;5.890;2023-06-22T03:59:12;6.93;;;3.03;;
41556;SDS011;27720;51.992;5.890;2023-06-22T04:01:37;3.95;;;2.63;;
41556;SDS011;27720;51.992;5.890;2023-06-22T04:04:06;4.32;;;2.45;;
41556;SDS011;27720;51.992;5.890;2023-06-22T04:06:32;5.80;;;3.45;;
41556;SDS011;27720;51.992;5.890;2023-06-22T04:08:59;4.82;;;2.75;;
41556;SDS011;27720;51.992;5.890;2023-06-22T04:11:25;4.70;;;2.97;;
41556;SDS011;27720;51.992;5.890;2023-06-22T04:13:51;5.07;;;3.28;;
41556;SDS011;27720;51.992;5.890;2023-06-22T04:16:17;6.25;;;3.30;;
41556;SDS011;27720;51.992;5.890;2023-06-22T04:18:43;5.45;;;3.50;;
41556;SDS011;27720;51.992;5.890;2023-06-22T04:21:09;5.57;;;3.58;;
41556;SDS011;27720;51.992;5.890;2023-06-22T04:23:35;6.85;;;3.58;;
41556;SDS011;27720;51.992;5.890;2023-06-22T04:26:01;5.78;;;3.30;;
41556;SDS011;27720;51.992;5.890;2023-06-22T04:28:26;6.00;;;3.00;;
41556;SDS011;27720;51.992;5.890;2023-06-22T04:30:52;7.75;;;3.70;;
41556;SDS011;27720;51.992;5.890;2023-06-22T04:35:48;5.97;;;3.45;;
41556;SDS011;27720;51.992;5.890;2023-06-22T04:38:14;8.25;;;4.30;;
41556;SDS011;27720;51.992;5.890;2023-06-22T04:40:40;6.05;;;4.20;;
41556;SDS011;27720;51.992;5.890;2023-06-22T04:43:05;8.88;;;4.35;;
41556;SDS011;27720;51.992;5.890;2023-06-22T04:45:32;7.03;;;3.28;;
41556;SDS011;27720;51.992;5.890;2023-06-22T04:47:58;9.00;;;4.40;;
41556;SDS011;27720;51.992;5.890;2023-06-22T04:50:24;6.30;;;3.50;;
41556;SDS011;27720;51.992;5.890;2023-06-22T04:52:52;6.80;;;4.05;;
41556;SDS011;27720;51.992;5.890;2023-06-22T04:55:19;5.55;;;3.50;;
41556;SDS011;27720;51.992;5.890;2023-06-22T04:57:45;5.35;;;3.03;;
41556;SDS011;27720;51.992;5.890;2023-06-22T05:00:18;6.68;;;3.03;;
41556;SDS011;27720;51.992;5.890;2023-06-22T05:02:48;5.78;;;3.55;;
41556;SDS011;27720;51.992;5.890;2023-06-22T05:05:14;4.38;;;2.80;;
41556;SDS011;27720;51.992;5.890;2023-06-22T05:07:44;6.10;;;3.13;;
41556;SDS011;27720;51.992;5.890;2023-06-22T05:10:13;6.70;;;3.47;;
41556;SDS011;27720;51.992;5.890;2023-06-22T05:12:39;6.45;;;3.40;;
41556;SDS011;27720;51.992;5.890;2023-06-22T05:15:06;5.90;;;3.13;;
41556;SDS011;27720;51.992;5.890;2023-06-22T05:17:33;6.75;;;3.28;;
41556;SDS011;27720;51.992;5.890;2023-06-22T05:19:59;5.22;;;3.17;;
41556;SDS011;27720;51.992;5.890;2023-06-22T05:22:25;4.38;;;2.90;;
41556;SDS011;27720;51.992;5.890;2023-06-22T05:24:50;5.50;;;3.25;;
41556;SDS011;27720;51.992;5.890;2023-06-22T05:27:16;4.50;;;2.70;;
41556;SDS011;27720;51.992;5.890;2023-06-22T05:29:42;5.28;;;3.20;;
41556;SDS011;27720;51.992;5.890;2023-06-22T05:32:08;5.22;;;3.45;;
41556;SDS011;27720;51.992;5.890;2023-06-22T05:34:33;5.35;;;3.42;;
41556;SDS011;27720;51.992;5.890;2023-06-22T05:37:00;5.90;;;3.63;;
41556;SDS011;27720;51.992;5.890;2023-06-22T05:39:25;5.38;;;2.80;;
41556;SDS011;27720;51.992;5.890;2023-06-22T05:41:51;4.45;;;2.70;;
41556;SDS011;27720;51.992;5.890;2023-06-22T05:44:17;6.18;;;2.78;;
41556;SDS011;27720;51.992;5.890;2023-06-22T05:46:44;4.28;;;2.80;;
41556;SDS011;27720;51.992;5.890;2023-06-22T05:49:12;4.47;;;2.90;;
41556;SDS011;27720;51.992;5.890;2023-06-22T05:51:38;5.93;;;2.70;;
41556;SDS011;27720;51.992;5.890;2023-06-22T05:54:04;6.65;;;3.20;;
41556;SDS011;27720;51.992;5.890;2023-06-22T05:56:30;4.68;;;3.17;;
41556;SDS011;27720;51.992;5.890;2023-06-22T05:58:55;5.65;;;3.10;;
41556;SDS011;27720;51.992;5.890;2023-06-22T06:01:21;4.53;;;2.72;;
41556;SDS011;27720;51.992;5.890;2023-06-22T06:03:47;3.80;;;2.22;;
41556;SDS011;27720;51.992;5.890;2023-06-22T06:06:19;4.13;;;2.22;;
41556;SDS011;27720;51.992;5.890;2023-06-22T06:09:27;4.20;;;2.03;;
41556;SDS011;27720;51.992;5.890;2023-06-22T06:11:53;7.13;;;2.50;;
41556;SDS011;27720;51.992;5.890;2023-06-22T06:14:25;4.70;;;2.80;;
41556;SDS011;27720;51.992;5.890;2023-06-22T06:16:51;6.45;;;3.55;;
41556;SDS011;27720;51.992;5.890;2023-06-22T06:19:16;6.68;;;2.95;;
41556;SDS011;27720;51.992;5.890;2023-06-22T06:21:42;7.13;;;2.72;;
41556;SDS011;27720;51.992;5.890;2023-06-22T06:24:08;4.15;;;2.17;;
41556;SDS011;27720;51.992;5.890;2023-06-22T06:26:34;3.15;;;1.83;;
41556;SDS011;27720;51.992;5.890;2023-06-22T06:29:00;3.10;;;1.92;;
41556;SDS011;27720;51.992;5.890;2023-06-22T06:31:27;3.47;;;1.98;;
41556;SDS011;27720;51.992;5.890;2023-06-22T06:33:53;4.60;;;2.67;;
41556;SDS011;27720;51.992;5.890;2023-06-22T06:36:20;3.70;;;2.17;;
41556;SDS011;27720;51.992;5.890;2023-06-22T06:38:46;3.65;;;2.00;;
41556;SDS011;27720;51.992;5.890;2023-06-22T06:41:15;6.00;;;2.35;;
41556;SDS011;27720;51.992;5.890;2023-06-22T06:43:41;5.25;;;2.58;;
41556;SDS011;27720;51.992;5.890;2023-06-22T06:46:11;6.77;;;3.70;;
41556;SDS011;27720;51.992;5.890;2023-06-22T06:48:36;5.45;;;3.47;;
41556;SDS011;27720;51.992;5.890;2023-06-22T06:51:02;6.03;;;2.80;;
41556;SDS011;27720;51.992;5.890;2023-06-22T06:53:29;5.68;;;3.03;;
41556;SDS011;27720;51.992;5.890;2023-06-22T06:55:55;5.22;;;2.60;;
41556;SDS011;27720;51.992;5.890;2023-06-22T06:58:21;4.13;;;2.15;;
41556;SDS011;27720;51.992;5.890;2023-06-22T07:00:48;4.63;;;2.10;;
41556;SDS011;27720;51.992;5.890;2023-06-22T07:03:14;3.95;;;2.45;;
41556;SDS011;27720;51.992;5.890;2023-06-22T07:05:40;7.65;;;3.13;;
41556;SDS011;27720;51.992;5.890;2023-06-22T07:08:06;6.18;;;2.70;;
41556;SDS011;27720;51.992;5.890;2023-06-22T07:10:32;3.90;;;2.30;;
41556;SDS011;27720;51.992;5.890;2023-06-22T07:12:58;8.50;;;2.35;;
41556;SDS011;27720;51.992;5.890;2023-06-22T07:15:24;5.18;;;2.55;;
41556;SDS011;27720;51.992;5.890;2023-06-22T07:17:50;4.53;;;2.22;;
41556;SDS011;27720;51.992;5.890;2023-06-22T07:20:16;3.55;;;2.10;;
41556;SDS011;27720;51.992;5.890;2023-06-22T07:22:42;4.43;;;2.40;;
41556;SDS011;27720;51.992;5.890;2023-06-22T07:25:09;3.63;;;2.45;;
41556;SDS011;27720;51.992;5.890;2023-06-22T07:27:38;4.20;;;2.20;;
41556;SDS011;27720;51.992;5.890;2023-06-22T07:30:08;5.15;;;2.78;;
41556;SDS011;27720;51.992;5.890;2023-06-22T07:32:35;5.20;;;2.42;;
41556;SDS011;27720;51.992;5.890;2023-06-22T07:35:01;4.65;;;2.30;;
41556;SDS011;27720;51.992;5.890;2023-06-22T07:37:30;3.53;;;2.10;;
41556;SDS011;27720;51.992;5.890;2023-06-22T07:39:58;4.90;;;2.30;;
41556;SDS011;27720;51.992;5.890;2023-06-22T07:42:24;4.25;;;2.28;;
41556;SDS011;27720;51.992;5.890;2023-06-22T07:44:51;4.70;;;2.40;;
41556;SDS011;27720;51.992;5.890;2023-06-22T07:47:16;3.67;;;2.13;;
41556;SDS011;27720;51.992;5.890;2023-06-22T07:49:50;5.32;;;2.70;;
41556;SDS011;27720;51.992;5.890;2023-06-22T07:52:17;3.80;;;2.13;;
41556;SDS011;27720;51.992;5.890;2023-06-22T07:54:43;4.35;;;2.33;;
41556;SDS011;27720;51.992;5.890;2023-06-22T07:57:08;4.25;;;2.20;;
41556;SDS011;27720;51.992;5.890;2023-06-22T07:59:34;4.78;;;2.03;;
41556;SDS011;27720;51.992;5.890;2023-06-22T08:02:04;4.15;;;2.30;;
41556;SDS011;27720;51.992;5.890;2023-06-22T08:04:31;3.90;;;2.20;;
41556;SDS011;27720;51.992;5.890;2023-06-22T08:07:02;6.30;;;2.38;;
41556;SDS011;27720;51.992;5.890;2023-06-22T08:09:30;3.28;;;1.98;;
41556;SDS011;27720;51.992;5.890;2023-06-22T08:11:58;3.75;;;2.30;;
41556;SDS011;27720;51.992;5.890;2023-06-22T08:14:27;7.95;;;2.58;;
41556;SDS011;27720;51.992;5.890;2023-06-22T08:16:54;3.80;;;1.70;;
41556;SDS011;27720;51.992;5.890;2023-06-22T08:19:20;3.25;;;1.58;;
41556;SDS011;27720;51.992;5.890;2023-06-22T08:21:46;6.43;;;1.67;;
41556;SDS011;27720;51.992;5.890;2023-06-22T08:24:12;2.80;;;1.90;;
41556;SDS011;27720;51.992;5.890;2023-06-22T08:26:51;3.25;;;1.88;;
41556;SDS011;27720;51.992;5.890;2023-06-22T08:29:17;2.97;;;2.15;;
41556;SDS011;27720;51.992;5.890;2023-06-22T08:31:43;3.65;;;1.50;;
41556;SDS011;27720;51.992;5.890;2023-06-22T08:34:09;2.42;;;1.63;;
41556;SDS011;27720;51.992;5.890;2023-06-22T08:36:34;2.65;;;1.70;;
41556;SDS011;27720;51.992;5.890;2023-06-22T08:39:06;9.10;;;2.28;;
41556;SDS011;27720;51.992;5.890;2023-06-22T08:41:33;3.53;;;1.83;;
41556;SDS011;27720;51.992;5.890;2023-06-22T08:43:59;3.08;;;1.95;;
41556;SDS011;27720;51.992;5.890;2023-06-22T08:46:25;4.47;;;2.17;;
41556;SDS011;27720;51.992;5.890;2023-06-22T08:48:58;3.28;;;1.92;;
41556;SDS011;27720;51.992;5.890;2023-06-22T08:51:24;3.65;;;1.60;;
41556;SDS011;27720;51.992;5.890;2023-06-22T08:53:50;3.22;;;1.95;;
41556;SDS011;27720;51.992;5.890;2023-06-22T08:56:16;3.33;;;2.20;;
41556;SDS011;27720;51.992;5.890;2023-06-22T08:58:43;4.75;;;2.17;;
41556;SDS011;27720;51.992;5.890;2023-06-22T09:01:18;4.57;;;1.75;;
41556;SDS011;27720;51.992;5.890;2023-06-22T09:03:44;1.95;;;1.23;;
41556;SDS011;27720;51.992;5.890;2023-06-22T09:06:19;3.60;;;1.73;;
41556;SDS011;27720;51.992;5.890;2023-06-22T09:08:47;2.75;;;1.70;;
41556;SDS011;27720;51.992;5.890;2023-06-22T09:11:14;1.77;;;1.30;;
41556;SDS011;27720;51.992;5.890;2023-06-22T09:13:42;2.97;;;2.17;;
41556;SDS011;27720;51.992;5.890;2023-06-22T09:16:08;10.05;;;1.90;;
41556;SDS011;27720;51.992;5.890;2023-06-22T09:18:34;5.43;;;1.98;;
41556;SDS011;27720;51.992;5.890;2023-06-22T09:21:01;3.50;;;2.00;;
41556;SDS011;27720;51.992;5.890;2023-06-22T09:23:29;4.25;;;1.33;;
41556;SDS011;27720;51.992;5.890;2023-06-22T09:25:55;2.53;;;1.27;;
41556;SDS011;27720;51.992;5.890;2023-06-22T09:28:20;2.83;;;1.55;;
41556;SDS011;27720;51.992;5.890;2023-06-22T09:30:46;2.67;;;1.67;;
41556;SDS011;27720;51.992;5.890;2023-06-22T09:33:12;4.05;;;1.45;;
41556;SDS011;27720;51.992;5.890;2023-06-22T09:35:38;4.38;;;1.52;;
41556;SDS011;27720;51.992;5.890;2023-06-22T09:38:03;6.55;;;1.80;;
41556;SDS011;27720;51.992;5.890;2023-06-22T09:40:29;3.20;;;1.60;;
41556;SDS011;27720;51.992;5.890;2023-06-22T09:42:55;4.82;;;1.77;;
41556;SDS011;27720;51.992;5.890;2023-06-22T09:45:23;2.45;;;1.48;;
41556;SDS011;27720;51.992;5.890;2023-06-22T09:47:49;2.72;;;1.20;;
41556;SDS011;27720;51.992;5.890;2023-06-22T09:50:15;3.15;;;1.45;;
41556;SDS011;27720;51.992;5.890;2023-06-22T09:52:41;3.45;;;1.70;;
41556;SDS011;27720;51.992;5.890;2023-06-22T09:55:09;2.30;;;1.20;;
41556;SDS011;27720;51.992;5.890;2023-06-22T09:57:35;8.65;;;1.70;;
41556;SDS011;27720;51.992;5.890;2023-06-22T10:00:01;3.88;;;1.67;;
41556;SDS011;27720;51.992;5.890;2023-06-22T10:02:30;2.88;;;1.48;;
41556;SDS011;27720;51.992;5.890;2023-06-22T10:04:56;4.63;;;2.00;;
41556;SDS011;27720;51.992;5.890;2023-06-22T10:07:22;3.30;;;1.23;;
41556;SDS011;27720;51.992;5.890;2023-06-22T10:09:48;3.15;;;1.58;;
41556;SDS011;27720;51.992;5.890;2023-06-22T10:12:13;3.58;;;1.50;;
41556;SDS011;27720;51.992;5.890;2023-06-22T10:14:39;2.13;;;1.40;;
41556;SDS011;27720;51.992;5.890;2023-06-22T10:17:05;3.15;;;1.20;;
41556;SDS011;27720;51.992;5.890;2023-06-22T10:19:32;4.05;;;1.52;;
41556;SDS011;27720;51.992;5.890;2023-06-22T10:21:58;2.15;;;1.33;;
41556;SDS011;27720;51.992;5.890;2023-06-22T10:24:24;2.80;;;1.30;;
41556;SDS011;27720;51.992;5.890;2023-06-22T10:26:50;5.40;;;1.40;;
41556;SDS011;27720;51.992;5.890;2023-06-22T10:29:16;4.05;;;1.27;;
41556;SDS011;27720;51.992;5.890;2023-06-22T10:31:42;5.93;;;1.42;;
41556;SDS011;27720;51.992;5.890;2023-06-22T10:34:10;2.92;;;1.42;;
41556;SDS011;27720;51.992;5.890;2023-06-22T10:36:36;2.78;;;1.52;;
41556;SDS011;27720;51.992;5.890;2023-06-22T10:39:02;3.28;;;1.50;;
41556;SDS011;27720;51.992;5.890;2023-06-22T10:41:28;2.33;;;1.40;;
41556;SDS011;27720;51.992;5.890;2023-06-22T10:43:55;2.63;;;1.35;;
41556;SDS011;27720;51.992;5.890;2023-06-22T10:46:21;2.30;;;1.38;;
41556;SDS011;27720;51.992;5.890;2023-06-22T10:48:52;4.93;;;1.48;;
41556;SDS011;27720;51.992;5.890;2023-06-22T10:51:20;1.95;;;1.40;;
41556;SDS011;27720;51.992;5.890;2023-06-22T10:53:46;4.75;;;1.23;;
41556;SDS011;27720;51.992;5.890;2023-06-22T10:56:12;2.28;;;1.60;;
41556;SDS011;27720;51.992;5.890;2023-06-22T10:58:42;3.65;;;1.60;;
41556;SDS011;27720;51.992;5.890;2023-06-22T11:01:09;2.33;;;1.35;;
41556;SDS011;27720;51.992;5.890;2023-06-22T11:03:35;5.10;;;1.38;;
41556;SDS011;27720;51.992;5.890;2023-06-22T11:06:03;3.08;;;1.75;;
41556;SDS011;27720;51.992;5.890;2023-06-22T11:08:29;2.78;;;1.73;;
41556;SDS011;27720;51.992;5.890;2023-06-22T11:10:55;2.25;;;1.50;;
41556;SDS011;27720;51.992;5.890;2023-06-22T11:13:21;4.00;;;1.63;;
41556;SDS011;27720;51.992;5.890;2023-06-22T11:15:47;2.85;;;1.60;;
41556;SDS011;27720;51.992;5.890;2023-06-22T11:18:12;2.15;;;1.20;;
41556;SDS011;27720;51.992;5.890;2023-06-22T11:20:38;2.38;;;1.50;;
41556;SDS011;27720;51.992;5.890;2023-06-22T11:23:05;2.13;;;1.40;;
41556;SDS011;27720;51.992;5.890;2023-06-22T11:25:32;4.20;;;1.63;;
41556;SDS011;27720;51.992;5.890;2023-06-22T11:28:01;4.38;;;1.67;;
41556;SDS011;27720;51.992;5.890;2023-06-22T11:30:27;3.80;;;2.00;;
41556;SDS011;27720;51.992;5.890;2023-06-22T11:32:53;2.78;;;2.03;;
41556;SDS011;27720;51.992;5.890;2023-06-22T11:35:20;3.22;;;1.98;;
41556;SDS011;27720;51.992;5.890;2023-06-22T11:37:45;3.63;;;2.05;;
41556;SDS011;27720;51.992;5.890;2023-06-22T11:40:12;2.80;;;1.85;;
41556;SDS011;27720;51.992;5.890;2023-06-22T11:42:38;3.55;;;2.20;;
41556;SDS011;27720;51.992;5.890;2023-06-22T11:45:04;2.90;;;2.10;;
41556;SDS011;27720;51.992;5.890;2023-06-22T11:47:32;4.28;;;1.88;;
41556;SDS011;27720;51.992;5.890;2023-06-22T11:49:58;3.28;;;1.90;;
41556;SDS011;27720;51.992;5.890;2023-06-22T11:52:23;2.22;;;1.55;;
41556;SDS011;27720;51.992;5.890;2023-06-22T11:54:49;3.20;;;1.83;;
41556;SDS011;27720;51.992;5.890;2023-06-22T11:57:15;2.90;;;1.92;;
41556;SDS011;27720;51.992;5.890;2023-06-22T11:59:45;5.45;;;2.05;;
41556;SDS011;27720;51.992;5.890;2023-06-22T12:02:19;3.28;;;2.20;;
41556;SDS011;27720;51.992;5.890;2023-06-22T12:05:30;3.47;;;2.10;;
41556;SDS011;27720;51.992;5.890;2023-06-22T12:09:27;3.20;;;2.00;;
41556;SDS011;27720;51.992;5.890;2023-06-22T12:12:42;3.58;;;2.03;;
41556;SDS011;27720;51.992;5.890;2023-06-22T12:15:09;3.03;;;2.22;;
41556;SDS011;27720;51.992;5.890;2023-06-22T12:20:05;4.43;;;2.50;;
41556;SDS011;27720;51.992;5.890;2023-06-22T12:22:32;3.63;;;2.50;;
41556;SDS011;27720;51.992;5.890;2023-06-22T12:25:03;4.90;;;2.60;;
41556;SDS011;27720;51.992;5.890;2023-06-22T12:27:30;4.07;;;2.72;;
41556;SDS011;27720;51.992;5.890;2023-06-22T12:36:34;5.85;;;3.00;;
41556;SDS011;27720;51.992;5.890;2023-06-22T12:39:25;3.97;;;2.47;;
41556;SDS011;27720;51.992;5.890;2023-06-22T12:45:38;5.50;;;3.33;;
41556;SDS011;27720;51.992;5.890;2023-06-22T12:48:08;4.63;;;3.00;;
41556;SDS011;27720;51.992;5.890;2023-06-22T12:50:34;5.63;;;3.55;;
41556;SDS011;27720;51.992;5.890;2023-06-22T12:53:07;5.55;;;3.70;;
41556;SDS011;27720;51.992;5.890;2023-06-22T12:55:39;5.32;;;3.67;;
41556;SDS011;27720;51.992;5.890;2023-06-22T12:58:24;6.72;;;3.33;;
41556;SDS011;27720;51.992;5.890;2023-06-22T13:01:43;7.05;;;3.70;;
41556;SDS011;27720;51.992;5.890;2023-06-22T13:04:35;5.25;;;3.58;;
41556;SDS011;27720;51.992;5.890;2023-06-22T13:07:30;4.60;;;3.42;;
41556;SDS011;27720;51.992;5.890;2023-06-22T13:40:09;6.82;;;4.15;;
41556;SDS011;27720;51.992;5.890;2023-06-22T13:43:12;6.50;;;4.00;;
41556;SDS011;27720;51.992;5.890;2023-06-22T13:45:57;5.78;;;3.85;;
41556;SDS011;27720;51.992;5.890;2023-06-22T13:48:51;7.15;;;4.97;;
41556;SDS011;27720;51.992;5.890;2023-06-22T14:02:33;5.53;;;4.20;;
41556;SDS011;27720;51.992;5.890;2023-06-22T14:05:02;7.30;;;4.60;;
41556;SDS011;27720;51.992;5.890;2023-06-22T14:07:28;7.03;;;4.15;;
41556;SDS011;27720;51.992;5.890;2023-06-22T14:09:53;5.63;;;4.20;;
41556;SDS011;27720;51.992;5.890;2023-06-22T14:12:19;5.95;;;4.53;;
41556;SDS011;27720;51.992;5.890;2023-06-22T14:14:45;5.82;;;4.40;;
41556;SDS011;27720;51.992;5.890;2023-06-22T14:17:11;7.20;;;5.03;;
41556;SDS011;27720;51.992;5.890;2023-06-22T14:19:40;7.88;;;4.95;;
41556;SDS011;27720;51.992;5.890;2023-06-22T14:22:09;7.75;;;4.32;;
41556;SDS011;27720;51.992;5.890;2023-06-22T14:24:35;8.18;;;4.40;;
41556;SDS011;27720;51.992;5.890;2023-06-22T14:27:00;8.23;;;4.05;;
41556;SDS011;27720;51.992;5.890;2023-06-22T14:29:28;6.60;;;4.72;;
41556;SDS011;27720;51.992;5.890;2023-06-22T14:31:54;6.63;;;4.47;;
41556;SDS011;27720;51.992;5.890;2023-06-22T14:34:19;6.22;;;4.20;;
41556;SDS011;27720;51.992;5.890;2023-06-22T14:36:45;6.05;;;4.60;;
41556;SDS011;27720;51.992;5.890;2023-06-22T14:39:11;5.53;;;4.40;;
41556;SDS011;27720;51.992;5.890;2023-06-22T14:41:39;7.40;;;4.30;;
41556;SDS011;27720;51.992;5.890;2023-06-22T14:44:05;6.45;;;4.30;;
41556;SDS011;27720;51.992;5.890;2023-06-22T14:46:30;7.72;;;4.60;;
41556;SDS011;27720;51.992;5.890;2023-06-22T14:48:56;7.65;;;4.78;;
41556;SDS011;27720;51.992;5.890;2023-06-22T14:51:22;7.07;;;4.72;;
41556;SDS011;27720;51.992;5.890;2023-06-22T14:53:48;5.82;;;3.97;;
41556;SDS011;27720;51.992;5.890;2023-06-22T14:56:17;8.15;;;4.60;;
41556;SDS011;27720;51.992;5.890;2023-06-22T14:58:51;6.78;;;4.55;;
41556;SDS011;27720;51.992;5.890;2023-06-22T15:01:17;7.35;;;5.10;;
41556;SDS011;27720;51.992;5.890;2023-06-22T15:03:43;8.88;;;4.45;;
41556;SDS011;27720;51.992;5.890;2023-06-22T15:06:18;6.55;;;4.55;;
41556;SDS011;27720;51.992;5.890;2023-06-22T15:09:15;6.93;;;4.85;;
41556;SDS011;27720;51.992;5.890;2023-06-22T15:11:41;7.28;;;4.63;;
41556;SDS011;27720;51.992;5.890;2023-06-22T15:14:10;8.27;;;4.68;;
41556;SDS011;27720;51.992;5.890;2023-06-22T15:16:51;8.88;;;6.20;;
41556;SDS011;27720;51.992;5.890;2023-06-22T15:19:39;8.77;;;5.57;;
41556;SDS011;27720;51.992;5.890;2023-06-22T15:22:35;8.52;;;5.60;;
41556;SDS011;27720;51.992;5.890;2023-06-22T15:25:34;8.40;;;5.47;;
41556;SDS011;27720;51.992;5.890;2023-06-22T15:28:00;9.40;;;5.10;;
41556;SDS011;27720;51.992;5.890;2023-06-22T15:30:28;8.88;;;6.30;;
41556;SDS011;27720;51.992;5.890;2023-06-22T15:32:57;9.10;;;6.30;;
41556;SDS011;27720;51.992;5.890;2023-06-22T15:35:23;13.18;;;7.28;;
41556;SDS011;27720;51.992;5.890;2023-06-22T15:37:49;9.05;;;6.47;;
41556;SDS011;27720;51.992;5.890;2023-06-22T15:40:17;8.55;;;5.90;;
41556;SDS011;27720;51.992;5.890;2023-06-22T15:42:44;9.68;;;6.88;;
41556;SDS011;27720;51.992;5.890;2023-06-22T15:45:19;8.70;;;5.47;;
41556;SDS011;27720;51.992;5.890;2023-06-22T15:50:49;10.50;;;6.30;;
41556;SDS011;27720;51.992;5.890;2023-06-22T15:53:16;8.40;;;6.25;;
41556;SDS011;27720;51.992;5.890;2023-06-22T15:55:45;11.30;;;7.32;;
41556;SDS011;27720;51.992;5.890;2023-06-22T15:58:12;9.30;;;6.15;;
41556;SDS011;27720;51.992;5.890;2023-06-22T16:00:38;9.85;;;6.13;;
41556;SDS011;27720;51.992;5.890;2023-06-22T16:03:03;8.50;;;5.65;;
41556;SDS011;27720;51.992;5.890;2023-06-22T16:05:29;9.38;;;5.97;;
41556;SDS011;27720;51.992;5.890;2023-06-22T16:07:55;9.82;;;6.50;;
41556;SDS011;27720;51.992;5.890;2023-06-22T16:10:22;9.85;;;6.03;;
41556;SDS011;27720;51.992;5.890;2023-06-22T16:12:48;9.25;;;5.72;;